createdAt,value
2017-05-14T00:00:03.791Z,19.09
2017-05-14T00:00:29.982Z,19.07
2017-05-14T00:00:56.099Z,18.96
2017-05-14T00:01:22.199Z,19.08
2017-05-14T00:01:48.337Z,18.99
2017-05-14T00:02:14.466Z,18.95
2017-05-14T00:02:40.566Z,19.08
2017-05-14T00:03:06.685Z,19.02
2017-05-14T00:03:32.788Z,19.04
2017-05-14T00:03:58.895Z,19.07
2017-05-14T00:04:24.984Z,19.04
2017-05-14T00:04:51.115Z,19.08
2017-05-14T00:05:17.252Z,19.04
2017-05-14T00:05:43.345Z,19
2017-05-14T00:06:09.462Z,19.09
2017-05-14T00:06:35.569Z,19.07
2017-05-14T00:07:01.712Z,18.99
2017-05-14T00:07:27.820Z,18.99
2017-05-14T00:07:53.909Z,18.99
2017-05-14T00:08:20.058Z,18.96
2017-05-14T00:08:46.192Z,18.96
2017-05-14T00:09:12.310Z,18.96
2017-05-14T00:09:38.431Z,19.09
2017-05-14T00:10:04.582Z,19.08
2017-05-14T00:10:30.678Z,19.04
2017-05-14T00:10:56.792Z,19.04
2017-05-14T00:11:22.911Z,19.07
2017-05-14T00:11:49.015Z,19.11
2017-05-14T00:12:15.117Z,19.04
2017-05-14T00:12:41.254Z,18.98
2017-05-14T00:13:07.379Z,19
2017-05-14T00:13:33.544Z,18.9
2017-05-14T00:13:59.660Z,18.83
2017-05-14T00:14:25.799Z,18.81
2017-05-14T00:14:51.908Z,18.95
2017-05-14T00:15:18.031Z,18.81
2017-05-14T00:15:44.139Z,18.86
2017-05-14T00:16:10.266Z,18.84
2017-05-14T00:16:36.410Z,18.89
2017-05-14T00:17:02.497Z,18.88
2017-05-14T00:17:28.628Z,18.86
2017-05-14T00:17:54.765Z,18.92
2017-05-14T00:18:20.884Z,18.88
2017-05-14T00:18:47.009Z,18.9
2017-05-14T00:19:13.126Z,18.9
2017-05-14T00:19:39.338Z,18.88
2017-05-14T00:20:05.493Z,18.83
2017-05-14T00:20:31.584Z,18.81
2017-05-14T00:20:57.717Z,18.84
2017-05-14T00:21:23.825Z,18.75
2017-05-14T00:21:49.906Z,18.73
2017-05-14T00:22:16.009Z,18.78
2017-05-14T00:22:42.144Z,18.81
2017-05-14T00:23:08.289Z,18.7
2017-05-14T00:23:34.387Z,18.71
2017-05-14T00:24:00.541Z,18.83
2017-05-14T00:24:26.693Z,18.75
2017-05-14T00:24:52.829Z,18.86
2017-05-14T00:25:18.942Z,18.88
2017-05-14T00:25:45.071Z,18.78
2017-05-14T00:26:11.177Z,18.8
2017-05-14T00:26:37.295Z,18.83
2017-05-14T00:27:03.416Z,18.78
2017-05-14T00:27:29.579Z,18.81
2017-05-14T00:27:55.673Z,18.81
2017-05-14T00:28:21.763Z,18.86
2017-05-14T00:28:47.901Z,18.75
2017-05-14T00:29:14.049Z,18.77
2017-05-14T00:29:40.177Z,18.8
2017-05-14T00:30:06.317Z,18.81
2017-05-14T00:30:32.414Z,18.83
2017-05-14T00:30:58.520Z,18.9
2017-05-14T00:31:24.615Z,18.9
2017-05-14T00:31:50.705Z,18.84
2017-05-14T00:32:16.815Z,18.81
2017-05-14T00:32:42.935Z,18.75
2017-05-14T00:33:09.052Z,18.84
2017-05-14T00:33:35.239Z,18.75
2017-05-14T00:34:01.395Z,18.84
2017-05-14T00:34:27.483Z,18.83
2017-05-14T00:34:53.641Z,18.8
2017-05-14T00:35:19.759Z,18.78
2017-05-14T00:35:45.867Z,18.8
2017-05-14T00:36:11.969Z,18.88
2017-05-14T00:36:38.054Z,18.86
2017-05-14T00:37:04.209Z,18.86
2017-05-14T00:37:30.310Z,18.84
2017-05-14T00:37:56.425Z,18.8
2017-05-14T00:38:22.528Z,18.86
2017-05-14T00:38:48.665Z,18.88
2017-05-14T00:39:14.802Z,18.86
2017-05-14T00:39:40.902Z,18.8
2017-05-14T00:40:07.038Z,18.92
2017-05-14T00:40:33.127Z,18.83
2017-05-14T00:40:59.250Z,18.78
2017-05-14T00:41:25.358Z,18.84
2017-05-14T00:41:51.482Z,18.78
2017-05-14T00:42:17.573Z,18.86
2017-05-14T00:42:43.681Z,18.78
2017-05-14T00:43:09.805Z,18.75
2017-05-14T00:43:35.943Z,18.73
2017-05-14T00:44:02.077Z,18.78
2017-05-14T00:44:28.231Z,18.73
2017-05-14T00:44:54.322Z,18.74
2017-05-14T00:45:20.426Z,18.71
2017-05-14T00:45:46.559Z,18.7
2017-05-14T00:46:12.654Z,18.7
2017-05-14T00:46:38.747Z,18.56
2017-05-14T00:47:04.838Z,18.63
2017-05-14T00:47:30.945Z,18.62
2017-05-14T00:47:57.101Z,18.56
2017-05-14T00:48:23.240Z,18.63
2017-05-14T00:48:49.399Z,18.65
2017-05-14T00:49:15.559Z,18.62
2017-05-14T00:49:41.672Z,18.53
2017-05-14T00:50:07.796Z,18.62
2017-05-14T00:50:33.931Z,18.6
2017-05-14T00:51:00.052Z,18.66
2017-05-14T00:51:26.147Z,18.7
2017-05-14T00:51:52.267Z,18.63
2017-05-14T00:52:18.394Z,18.62
2017-05-14T00:52:44.589Z,18.63
2017-05-14T00:53:10.696Z,18.65
2017-05-14T00:53:36.851Z,18.62
2017-05-14T00:54:03.043Z,18.6
2017-05-14T00:54:29.133Z,18.65
2017-05-14T00:54:55.257Z,18.66
2017-05-14T00:55:21.389Z,18.63
2017-05-14T00:55:47.483Z,18.71
2017-05-14T00:56:13.575Z,18.73
2017-05-14T00:56:39.684Z,18.8
2017-05-14T00:57:05.779Z,18.71
2017-05-14T00:57:31.882Z,18.8
2017-05-14T00:57:57.972Z,18.73
2017-05-14T00:58:24.070Z,18.73
2017-05-14T00:58:50.176Z,18.77
2017-05-14T00:59:16.307Z,18.75
2017-05-14T00:59:42.362Z,18.78
2017-05-14T01:00:08.494Z,18.73
2017-05-14T01:00:34.592Z,18.78
2017-05-14T01:01:00.683Z,18.78
2017-05-14T01:01:26.840Z,18.77
2017-05-14T01:01:52.942Z,18.77
2017-05-14T01:02:19.060Z,18.74
2017-05-14T01:02:45.192Z,18.78
2017-05-14T01:03:11.311Z,18.77
2017-05-14T01:03:37.422Z,18.81
2017-05-14T01:04:03.543Z,18.81
2017-05-14T01:04:29.633Z,18.84
2017-05-14T01:04:55.742Z,18.71
2017-05-14T01:05:21.869Z,18.78
2017-05-14T01:05:48.009Z,18.81
2017-05-14T01:06:14.136Z,18.78
2017-05-14T01:06:40.269Z,18.83
2017-05-14T01:07:06.356Z,18.75
2017-05-14T01:07:32.456Z,18.7
2017-05-14T01:07:58.590Z,18.81
2017-05-14T01:08:24.734Z,18.74
2017-05-14T01:08:50.888Z,18.7
2017-05-14T01:09:17.027Z,18.68
2017-05-14T01:09:43.157Z,18.75
2017-05-14T01:10:09.262Z,18.75
2017-05-14T01:10:35.375Z,18.74
2017-05-14T01:11:01.499Z,18.74
2017-05-14T01:11:27.607Z,18.81
2017-05-14T01:11:53.728Z,18.78
2017-05-14T01:12:19.824Z,18.74
2017-05-14T01:12:45.958Z,18.74
2017-05-14T01:13:12.050Z,18.78
2017-05-14T01:13:38.165Z,18.78
2017-05-14T01:14:04.294Z,18.75
2017-05-14T01:14:30.409Z,18.77
2017-05-14T01:14:56.541Z,18.73
2017-05-14T01:15:22.660Z,18.73
2017-05-14T01:15:48.781Z,18.65
2017-05-14T01:16:14.913Z,18.62
2017-05-14T01:16:41.031Z,18.68
2017-05-14T01:17:07.121Z,18.65
2017-05-14T01:17:33.281Z,18.6
2017-05-14T01:17:59.403Z,18.63
2017-05-14T01:18:25.521Z,18.63
2017-05-14T01:18:51.625Z,18.56
2017-05-14T01:19:17.754Z,18.6
2017-05-14T01:19:43.880Z,18.56
2017-05-14T01:20:10.002Z,18.6
2017-05-14T01:20:36.118Z,18.66
2017-05-14T01:21:02.252Z,18.59
2017-05-14T01:21:28.353Z,18.56
2017-05-14T01:21:54.468Z,18.52
2017-05-14T01:22:20.601Z,18.55
2017-05-14T01:22:46.729Z,18.62
2017-05-14T01:23:12.845Z,18.65
2017-05-14T01:23:38.995Z,18.6
2017-05-14T01:24:05.103Z,18.62
2017-05-14T01:24:31.217Z,18.55
2017-05-14T01:24:57.316Z,18.49
2017-05-14T01:25:23.421Z,18.5
2017-05-14T01:25:49.542Z,18.49
2017-05-14T01:26:15.663Z,18.56
2017-05-14T01:26:41.760Z,18.56
2017-05-14T01:27:07.880Z,18.52
2017-05-14T01:27:33.994Z,18.6
2017-05-14T01:28:00.131Z,18.62
2017-05-14T01:28:26.227Z,18.6
2017-05-14T01:28:52.316Z,18.62
2017-05-14T01:29:18.475Z,18.58
2017-05-14T01:29:44.632Z,18.73
2017-05-14T01:30:10.723Z,18.66
2017-05-14T01:30:36.854Z,18.65
2017-05-14T01:31:02.945Z,18.6
2017-05-14T01:31:29.084Z,18.55
2017-05-14T01:31:55.182Z,18.58
2017-05-14T01:32:21.298Z,18.52
2017-05-14T01:32:47.433Z,18.53
2017-05-14T01:33:13.561Z,18.58
2017-05-14T01:33:39.677Z,18.58
2017-05-14T01:34:05.807Z,18.63
2017-05-14T01:34:31.944Z,18.62
2017-05-14T01:34:58.056Z,18.62
2017-05-14T01:35:24.153Z,18.56
2017-05-14T01:35:50.286Z,18.6
2017-05-14T01:36:16.377Z,18.62
2017-05-14T01:36:42.479Z,18.56
2017-05-14T01:37:08.569Z,18.6
2017-05-14T01:37:34.672Z,18.6
2017-05-14T01:38:00.777Z,18.59
2017-05-14T01:38:26.865Z,18.63
2017-05-14T01:38:52.990Z,18.7
2017-05-14T01:39:19.125Z,18.7
2017-05-14T01:39:45.269Z,18.68
2017-05-14T01:40:11.389Z,18.63
2017-05-14T01:40:37.522Z,18.62
2017-05-14T01:41:03.612Z,18.62
2017-05-14T01:41:29.752Z,18.65
2017-05-14T01:41:55.855Z,18.56
2017-05-14T01:42:21.956Z,18.53
2017-05-14T01:42:48.060Z,18.6
2017-05-14T01:43:14.174Z,18.56
2017-05-14T01:43:40.319Z,18.6
2017-05-14T01:44:06.424Z,18.56
2017-05-14T01:44:32.570Z,18.5
2017-05-14T01:44:58.684Z,18.47
2017-05-14T01:45:24.820Z,18.52
2017-05-14T01:45:50.946Z,18.5
2017-05-14T01:46:17.044Z,18.63
2017-05-14T01:46:43.143Z,18.62
2017-05-14T01:47:09.241Z,18.6
2017-05-14T01:47:35.342Z,18.6
2017-05-14T01:48:01.462Z,18.56
2017-05-14T01:48:27.552Z,18.59
2017-05-14T01:48:53.690Z,18.63
2017-05-14T01:49:19.843Z,18.52
2017-05-14T01:49:45.958Z,18.58
2017-05-14T01:50:12.088Z,18.49
2017-05-14T01:50:38.216Z,18.56
2017-05-14T01:51:04.356Z,18.53
2017-05-14T01:51:30.484Z,18.53
2017-05-14T01:51:56.589Z,18.55
2017-05-14T01:52:22.701Z,18.55
2017-05-14T01:52:48.877Z,18.5
2017-05-14T01:53:14.997Z,18.5
2017-05-14T01:53:41.102Z,18.56
2017-05-14T01:54:07.225Z,18.45
2017-05-14T01:54:33.315Z,18.52
2017-05-14T01:54:59.419Z,18.56
2017-05-14T01:55:25.552Z,18.43
2017-05-14T01:55:51.639Z,18.4
2017-05-14T01:56:17.762Z,18.4
2017-05-14T01:56:43.869Z,18.52
2017-05-14T01:57:09.985Z,18.45
2017-05-14T01:57:36.084Z,18.45
2017-05-14T01:58:02.272Z,18.35
2017-05-14T01:58:28.364Z,18.41
2017-05-14T01:58:54.497Z,18.41
2017-05-14T01:59:20.609Z,18.41
2017-05-14T01:59:46.733Z,18.35
2017-05-14T02:00:12.869Z,18.4
2017-05-14T02:00:38.958Z,18.45
2017-05-14T02:01:05.079Z,18.45
2017-05-14T02:01:31.186Z,18.41
2017-05-14T02:01:57.280Z,18.31
2017-05-14T02:02:23.418Z,18.34
2017-05-14T02:02:49.553Z,18.33
2017-05-14T02:03:15.652Z,18.37
2017-05-14T02:03:41.767Z,18.41
2017-05-14T02:04:07.862Z,18.4
2017-05-14T02:04:33.979Z,18.29
2017-05-14T02:05:00.086Z,18.37
2017-05-14T02:05:26.232Z,18.29
2017-05-14T02:05:52.321Z,18.26
2017-05-14T02:06:18.461Z,18.35
2017-05-14T02:06:44.580Z,18.37
2017-05-14T02:07:10.714Z,18.37
2017-05-14T02:07:36.775Z,18.33
2017-05-14T02:08:02.874Z,18.41
2017-05-14T02:08:28.964Z,18.33
2017-05-14T02:08:55.122Z,18.31
2017-05-14T02:09:21.309Z,18.29
2017-05-14T02:09:47.395Z,18.29
2017-05-14T02:10:13.495Z,18.28
2017-05-14T02:10:39.631Z,18.28
2017-05-14T02:11:05.749Z,18.31
2017-05-14T02:11:31.870Z,18.22
2017-05-14T02:11:57.974Z,18.2
2017-05-14T02:12:24.068Z,18.2
2017-05-14T02:12:50.185Z,18.23
2017-05-14T02:13:16.318Z,18.19
2017-05-14T02:13:42.443Z,18.03
2017-05-14T02:14:08.533Z,18.08
2017-05-14T02:14:34.663Z,18.1
2017-05-14T02:15:00.760Z,18.08
2017-05-14T02:15:26.858Z,18.04
2017-05-14T02:15:52.953Z,18
2017-05-14T02:16:19.115Z,17.92
2017-05-14T02:16:45.299Z,18.03
2017-05-14T02:17:11.349Z,18.03
2017-05-14T02:17:37.463Z,18.01
2017-05-14T02:18:03.595Z,17.95
2017-05-14T02:18:29.752Z,17.94
2017-05-14T02:18:55.841Z,17.85
2017-05-14T02:19:22.024Z,17.8
2017-05-14T02:19:48.186Z,17.79
2017-05-14T02:20:14.318Z,17.78
2017-05-14T02:20:40.469Z,17.8
2017-05-14T02:21:06.560Z,17.79
2017-05-14T02:21:32.666Z,17.63
2017-05-14T02:21:58.793Z,17.67
2017-05-14T02:22:24.884Z,17.57
2017-05-14T02:22:50.988Z,17.65
2017-05-14T02:23:17.120Z,17.67
2017-05-14T02:23:43.258Z,17.79
2017-05-14T02:24:09.382Z,17.79
2017-05-14T02:24:35.595Z,17.74
2017-05-14T02:25:01.685Z,17.57
2017-05-14T02:25:27.782Z,17.64
2017-05-14T02:25:53.886Z,17.63
2017-05-14T02:26:19.979Z,17.64
2017-05-14T02:26:46.087Z,17.67
2017-05-14T02:27:12.225Z,17.64
2017-05-14T02:27:38.326Z,17.57
2017-05-14T02:28:04.486Z,17.63
2017-05-14T02:28:30.575Z,17.54
2017-05-14T02:28:56.769Z,17.59
2017-05-14T02:29:22.845Z,17.51
2017-05-14T02:29:48.966Z,17.46
2017-05-14T02:30:15.102Z,17.6
2017-05-14T02:30:41.214Z,17.52
2017-05-14T02:31:07.389Z,17.49
2017-05-14T02:31:33.489Z,17.56
2017-05-14T02:31:59.611Z,17.6
2017-05-14T02:32:25.704Z,17.6
2017-05-14T02:32:51.807Z,17.54
2017-05-14T02:33:17.900Z,17.64
2017-05-14T02:33:44.018Z,17.63
2017-05-14T02:34:10.126Z,17.65
2017-05-14T02:34:36.222Z,17.51
2017-05-14T02:35:02.310Z,17.46
2017-05-14T02:35:28.445Z,17.52
2017-05-14T02:35:54.542Z,17.48
2017-05-14T02:36:20.631Z,17.52
2017-05-14T02:36:46.734Z,17.49
2017-05-14T02:37:12.841Z,17.48
2017-05-14T02:37:38.961Z,17.52
2017-05-14T02:38:05.084Z,17.46
2017-05-14T02:38:31.197Z,17.49
2017-05-14T02:38:57.329Z,17.44
2017-05-14T02:39:23.455Z,17.45
2017-05-14T02:39:49.545Z,17.51
2017-05-14T02:40:15.694Z,17.52
2017-05-14T02:40:41.799Z,17.45
2017-05-14T02:41:07.885Z,17.48
2017-05-14T02:41:33.985Z,17.44
2017-05-14T02:42:00.090Z,17.48
2017-05-14T02:42:26.180Z,17.48
2017-05-14T02:42:52.299Z,17.48
2017-05-14T02:43:18.422Z,17.52
2017-05-14T02:43:44.524Z,17.44
2017-05-14T02:44:10.658Z,17.51
2017-05-14T02:44:36.821Z,17.57
2017-05-14T02:45:02.946Z,17.49
2017-05-14T02:45:29.078Z,17.51
2017-05-14T02:45:55.243Z,17.49
2017-05-14T02:46:21.362Z,17.51
2017-05-14T02:46:47.467Z,17.52
2017-05-14T02:47:13.562Z,17.45
2017-05-14T02:47:39.678Z,17.49
2017-05-14T02:48:05.838Z,17.51
2017-05-14T02:48:31.937Z,17.6
2017-05-14T02:48:58.091Z,17.51
2017-05-14T02:49:24.233Z,17.48
2017-05-14T02:49:50.414Z,17.54
2017-05-14T02:50:16.536Z,17.51
2017-05-14T02:50:42.628Z,17.42
2017-05-14T02:51:08.795Z,17.42
2017-05-14T02:51:34.903Z,17.46
2017-05-14T02:52:00.999Z,17.54
2017-05-14T02:52:27.089Z,17.44
2017-05-14T02:52:53.272Z,17.51
2017-05-14T02:53:19.427Z,17.46
2017-05-14T02:53:45.542Z,17.51
2017-05-14T02:54:11.646Z,17.49
2017-05-14T02:54:37.837Z,17.49
2017-05-14T02:55:03.997Z,17.38
2017-05-14T02:55:30.096Z,17.54
2017-05-14T02:55:56.231Z,17.44
2017-05-14T02:56:22.348Z,17.41
2017-05-14T02:56:48.468Z,17.46
2017-05-14T02:57:14.657Z,17.39
2017-05-14T02:57:40.803Z,17.41
2017-05-14T02:58:06.943Z,17.3
2017-05-14T02:58:33.076Z,17.24
2017-05-14T02:58:59.200Z,17.23
2017-05-14T02:59:25.365Z,17.23
2017-05-14T02:59:51.523Z,17.27
2017-05-14T03:00:17.616Z,17.26
2017-05-14T03:00:43.779Z,17.33
2017-05-14T03:01:09.861Z,17.29
2017-05-14T03:01:35.950Z,17.33
2017-05-14T03:02:02.142Z,17.33
2017-05-14T03:02:28.265Z,17.29
2017-05-14T03:02:54.383Z,17.34
2017-05-14T03:03:20.511Z,17.33
2017-05-14T03:03:46.611Z,17.33
2017-05-14T03:04:12.726Z,17.38
2017-05-14T03:04:38.856Z,17.27
2017-05-14T03:05:05.043Z,17.29
2017-05-14T03:05:31.160Z,17.26
2017-05-14T03:05:57.255Z,17.15
2017-05-14T03:06:23.370Z,17.16
2017-05-14T03:06:49.475Z,17.2
2017-05-14T03:07:15.602Z,17.15
2017-05-14T03:07:41.717Z,17.08
2017-05-14T03:08:07.865Z,17.08
2017-05-14T03:08:33.998Z,17.15
2017-05-14T03:09:00.135Z,17.15
2017-05-14T03:09:26.260Z,17.09
2017-05-14T03:09:52.366Z,17.12
2017-05-14T03:10:18.510Z,17.19
2017-05-14T03:10:44.631Z,17.12
2017-05-14T03:11:10.757Z,17.09
2017-05-14T03:11:36.859Z,17.06
2017-05-14T03:12:02.965Z,17.08
2017-05-14T03:12:29.053Z,17.01
2017-05-14T03:12:55.154Z,16.96
2017-05-14T03:13:21.288Z,16.96
2017-05-14T03:13:47.426Z,16.97
2017-05-14T03:14:13.498Z,17.02
2017-05-14T03:14:39.633Z,16.97
2017-05-14T03:15:05.749Z,17.06
2017-05-14T03:15:31.862Z,16.97
2017-05-14T03:15:57.971Z,17.02
2017-05-14T03:16:24.445Z,16.99
2017-05-14T03:16:50.573Z,16.97
2017-05-14T03:17:16.684Z,16.86
2017-05-14T03:17:42.779Z,16.97
2017-05-14T03:18:08.912Z,16.94
2017-05-14T03:18:35.004Z,16.87
2017-05-14T03:19:01.120Z,16.94
2017-05-14T03:19:27.256Z,17.01
2017-05-14T03:19:53.380Z,16.96
2017-05-14T03:20:19.497Z,16.94
2017-05-14T03:20:45.602Z,16.94
2017-05-14T03:21:11.757Z,16.94
2017-05-14T03:21:37.848Z,17.02
2017-05-14T03:22:04.030Z,16.96
2017-05-14T03:22:30.147Z,17.05
2017-05-14T03:22:56.256Z,16.97
2017-05-14T03:23:22.380Z,17.02
2017-05-14T03:23:48.544Z,17.01
2017-05-14T03:24:14.700Z,16.96
2017-05-14T03:24:40.830Z,16.96
2017-05-14T03:25:06.943Z,16.89
2017-05-14T03:25:33.045Z,17.01
2017-05-14T03:25:59.151Z,16.94
2017-05-14T03:26:25.237Z,16.81
2017-05-14T03:26:51.337Z,16.87
2017-05-14T03:27:17.443Z,16.83
2017-05-14T03:27:43.557Z,16.79
2017-05-14T03:28:09.661Z,16.81
2017-05-14T03:28:35.774Z,16.81
2017-05-14T03:29:01.877Z,16.84
2017-05-14T03:29:27.984Z,16.79
2017-05-14T03:29:54.071Z,16.79
2017-05-14T03:30:20.171Z,16.83
2017-05-14T03:30:46.277Z,16.81
2017-05-14T03:31:12.396Z,16.76
2017-05-14T03:31:38.490Z,16.79
2017-05-14T03:32:04.595Z,16.76
2017-05-14T03:32:30.716Z,16.78
2017-05-14T03:32:56.831Z,16.83
2017-05-14T03:33:22.986Z,16.79
2017-05-14T03:33:49.138Z,16.79
2017-05-14T03:34:15.271Z,16.83
2017-05-14T03:34:41.414Z,16.76
2017-05-14T03:35:07.508Z,16.78
2017-05-14T03:35:33.613Z,16.72
2017-05-14T03:35:59.732Z,16.78
2017-05-14T03:36:25.848Z,16.69
2017-05-14T03:36:51.956Z,16.79
2017-05-14T03:37:18.107Z,16.76
2017-05-14T03:37:44.222Z,16.76
2017-05-14T03:38:10.353Z,16.81
2017-05-14T03:38:36.453Z,16.79
2017-05-14T03:39:02.616Z,16.86
2017-05-14T03:39:28.747Z,16.81
2017-05-14T03:39:54.949Z,16.83
2017-05-14T03:40:20.996Z,16.79
2017-05-14T03:40:47.096Z,16.81
2017-05-14T03:41:13.231Z,16.9
2017-05-14T03:41:39.374Z,16.89
2017-05-14T03:42:05.471Z,16.87
2017-05-14T03:42:31.603Z,16.83
2017-05-14T03:42:57.721Z,16.91
2017-05-14T03:43:23.835Z,16.83
2017-05-14T03:43:49.969Z,16.94
2017-05-14T03:44:16.116Z,16.91
2017-05-14T03:44:42.270Z,16.87
2017-05-14T03:45:08.385Z,16.89
2017-05-14T03:45:34.479Z,16.94
2017-05-14T03:46:00.612Z,16.87
2017-05-14T03:46:26.707Z,16.96
2017-05-14T03:46:52.797Z,16.86
2017-05-14T03:47:18.907Z,16.86
2017-05-14T03:47:45.025Z,16.87
2017-05-14T03:48:11.113Z,16.93
2017-05-14T03:48:37.249Z,16.81
2017-05-14T03:49:03.402Z,16.91
2017-05-14T03:49:29.543Z,16.87
2017-05-14T03:49:55.670Z,16.99
2017-05-14T03:50:21.783Z,16.94
2017-05-14T03:50:47.892Z,16.94
2017-05-14T03:51:13.986Z,16.93
2017-05-14T03:51:40.076Z,16.96
2017-05-14T03:52:06.207Z,16.89
2017-05-14T03:52:32.306Z,16.96
2017-05-14T03:52:58.425Z,16.96
2017-05-14T03:53:24.553Z,16.81
2017-05-14T03:53:50.686Z,16.94
2017-05-14T03:54:16.771Z,16.93
2017-05-14T03:54:42.920Z,16.89
2017-05-14T03:55:09.026Z,16.94
2017-05-14T03:55:35.118Z,16.84
2017-05-14T03:56:01.247Z,16.96
2017-05-14T03:56:27.336Z,16.9
2017-05-14T03:56:53.437Z,16.93
2017-05-14T03:57:19.570Z,16.91
2017-05-14T03:57:45.680Z,16.94
2017-05-14T03:58:11.805Z,16.87
2017-05-14T03:58:37.937Z,16.87
2017-05-14T03:59:04.051Z,16.83
2017-05-14T03:59:30.149Z,16.81
2017-05-14T03:59:56.256Z,16.74
2017-05-14T04:00:22.403Z,16.83
2017-05-14T04:00:48.491Z,16.81
2017-05-14T04:01:14.593Z,16.79
2017-05-14T04:01:40.716Z,16.75
2017-05-14T04:02:06.822Z,16.75
2017-05-14T04:02:32.965Z,16.71
2017-05-14T04:02:59.110Z,16.74
2017-05-14T04:03:25.244Z,16.72
2017-05-14T04:03:51.335Z,16.75
2017-05-14T04:04:17.424Z,16.76
2017-05-14T04:04:43.562Z,16.86
2017-05-14T04:05:09.685Z,16.71
2017-05-14T04:05:35.773Z,16.75
2017-05-14T04:06:01.906Z,16.75
2017-05-14T04:06:28.059Z,16.71
2017-05-14T04:06:54.159Z,16.72
2017-05-14T04:07:20.253Z,16.71
2017-05-14T04:07:46.369Z,16.71
2017-05-14T04:08:12.503Z,16.74
2017-05-14T04:08:38.628Z,16.66
2017-05-14T04:09:04.791Z,16.58
2017-05-14T04:09:30.896Z,16.58
2017-05-14T04:09:57.050Z,16.66
2017-05-14T04:10:23.141Z,16.68
2017-05-14T04:10:49.269Z,16.72
2017-05-14T04:11:15.374Z,16.66
2017-05-14T04:11:41.480Z,16.68
2017-05-14T04:12:07.580Z,16.79
2017-05-14T04:12:33.673Z,16.72
2017-05-14T04:12:59.831Z,16.76
2017-05-14T04:13:25.987Z,16.72
2017-05-14T04:13:52.128Z,16.72
2017-05-14T04:14:18.231Z,16.75
2017-05-14T04:14:44.336Z,16.68
2017-05-14T04:15:10.452Z,16.61
2017-05-14T04:15:36.576Z,16.66
2017-05-14T04:16:02.682Z,16.66
2017-05-14T04:16:28.773Z,16.66
2017-05-14T04:16:54.945Z,16.69
2017-05-14T04:17:21.077Z,16.71
2017-05-14T04:17:47.199Z,16.71
2017-05-14T04:18:13.325Z,16.69
2017-05-14T04:18:39.440Z,16.76
2017-05-14T04:19:05.590Z,16.66
2017-05-14T04:19:31.750Z,16.78
2017-05-14T04:19:57.892Z,16.74
2017-05-14T04:20:24.013Z,16.79
2017-05-14T04:20:50.142Z,16.76
2017-05-14T04:21:16.263Z,16.71
2017-05-14T04:21:42.350Z,16.72
2017-05-14T04:22:08.486Z,16.71
2017-05-14T04:22:34.608Z,16.84
2017-05-14T04:23:00.748Z,16.74
2017-05-14T04:23:26.882Z,16.69
2017-05-14T04:23:53.092Z,16.66
2017-05-14T04:24:19.234Z,16.68
2017-05-14T04:24:45.362Z,16.71
2017-05-14T04:25:11.496Z,16.64
2017-05-14T04:25:37.583Z,16.66
2017-05-14T04:26:03.705Z,16.69
2017-05-14T04:26:29.811Z,16.58
2017-05-14T04:26:55.898Z,16.56
2017-05-14T04:27:22.067Z,16.61
2017-05-14T04:27:48.227Z,16.64
2017-05-14T04:28:14.346Z,16.66
2017-05-14T04:28:40.459Z,16.58
2017-05-14T04:29:06.561Z,16.58
2017-05-14T04:29:32.685Z,16.61
2017-05-14T04:29:58.818Z,16.64
2017-05-14T04:30:24.911Z,16.58
2017-05-14T04:30:51.005Z,16.58
2017-05-14T04:31:17.111Z,16.57
2017-05-14T04:31:43.205Z,16.57
2017-05-14T04:32:09.319Z,16.57
2017-05-14T04:32:35.457Z,16.54
2017-05-14T04:33:01.579Z,16.6
2017-05-14T04:33:27.719Z,16.6
2017-05-14T04:33:53.853Z,16.61
2017-05-14T04:34:19.951Z,16.66
2017-05-14T04:34:46.049Z,16.66
2017-05-14T04:35:12.167Z,16.65
2017-05-14T04:35:38.255Z,16.64
2017-05-14T04:36:04.391Z,16.71
2017-05-14T04:36:30.488Z,16.71
2017-05-14T04:36:56.579Z,16.74
2017-05-14T04:37:22.681Z,16.68
2017-05-14T04:37:48.809Z,16.66
2017-05-14T04:38:14.924Z,16.75
2017-05-14T04:38:41.025Z,16.83
2017-05-14T04:39:07.160Z,16.76
2017-05-14T04:39:33.294Z,16.81
2017-05-14T04:39:59.444Z,16.81
2017-05-14T04:40:25.565Z,16.78
2017-05-14T04:40:51.670Z,16.86
2017-05-14T04:41:17.770Z,16.81
2017-05-14T04:41:43.859Z,16.84
2017-05-14T04:42:09.961Z,16.89
2017-05-14T04:42:36.095Z,16.87
2017-05-14T04:43:02.232Z,16.81
2017-05-14T04:43:28.332Z,16.86
2017-05-14T04:43:54.435Z,16.87
2017-05-14T04:44:20.552Z,16.94
2017-05-14T04:44:46.648Z,16.9
2017-05-14T04:45:12.783Z,16.94
2017-05-14T04:45:38.876Z,16.99
2017-05-14T04:46:04.967Z,16.97
2017-05-14T04:46:31.102Z,16.96
2017-05-14T04:46:57.300Z,16.89
2017-05-14T04:47:23.388Z,16.93
2017-05-14T04:47:49.522Z,16.87
2017-05-14T04:48:15.677Z,17.01
2017-05-14T04:48:41.790Z,16.89
2017-05-14T04:49:07.892Z,16.89
2017-05-14T04:49:33.997Z,16.81
2017-05-14T04:50:00.133Z,16.81
2017-05-14T04:50:26.233Z,16.81
2017-05-14T04:50:52.338Z,16.71
2017-05-14T04:51:18.429Z,16.78
2017-05-14T04:51:44.559Z,16.78
2017-05-14T04:52:10.650Z,16.74
2017-05-14T04:52:36.753Z,16.69
2017-05-14T04:53:02.860Z,16.72
2017-05-14T04:53:28.971Z,16.74
2017-05-14T04:53:55.069Z,16.86
2017-05-14T04:54:21.175Z,16.76
2017-05-14T04:54:47.266Z,16.76
2017-05-14T04:55:13.365Z,16.86
2017-05-14T04:55:39.467Z,16.83
2017-05-14T04:56:05.560Z,16.75
2017-05-14T04:56:31.648Z,16.79
2017-05-14T04:56:57.752Z,16.81
2017-05-14T04:57:23.875Z,16.83
2017-05-14T04:57:49.989Z,16.9
2017-05-14T04:58:16.128Z,17.01
2017-05-14T04:58:42.250Z,17.01
2017-05-14T04:59:08.411Z,17.02
2017-05-14T04:59:34.502Z,16.99
2017-05-14T05:00:00.616Z,17.09
2017-05-14T05:00:26.722Z,17.11
2017-05-14T05:00:52.820Z,17.11
2017-05-14T05:01:18.910Z,17.15
2017-05-14T05:01:45.040Z,17.2
2017-05-14T05:02:11.167Z,17.15
2017-05-14T05:02:37.292Z,17.29
2017-05-14T05:03:03.410Z,17.24
2017-05-14T05:03:29.501Z,17.26
2017-05-14T05:03:55.609Z,17.26
2017-05-14T05:04:21.733Z,17.29
2017-05-14T05:04:47.872Z,17.27
2017-05-14T05:05:14.002Z,17.3
2017-05-14T05:05:40.101Z,17.33
2017-05-14T05:06:06.193Z,17.38
2017-05-14T05:06:32.295Z,17.39
2017-05-14T05:06:58.424Z,17.41
2017-05-14T05:07:24.516Z,17.36
2017-05-14T05:07:50.639Z,17.39
2017-05-14T05:08:16.773Z,17.46
2017-05-14T05:08:42.863Z,17.46
2017-05-14T05:09:08.985Z,17.46
2017-05-14T05:09:35.117Z,17.44
2017-05-14T05:10:01.264Z,17.41
2017-05-14T05:10:27.353Z,17.36
2017-05-14T05:10:53.492Z,17.44
2017-05-14T05:11:19.592Z,17.45
2017-05-14T05:11:45.705Z,17.42
2017-05-14T05:12:11.811Z,17.31
2017-05-14T05:12:37.910Z,17.39
2017-05-14T05:13:04.020Z,17.31
2017-05-14T05:13:30.203Z,17.36
2017-05-14T05:13:56.320Z,17.33
2017-05-14T05:14:22.458Z,17.39
2017-05-14T05:14:48.556Z,17.36
2017-05-14T05:15:14.673Z,17.42
2017-05-14T05:15:40.807Z,17.44
2017-05-14T05:16:06.933Z,17.41
2017-05-14T05:16:33.048Z,17.39
2017-05-14T05:16:59.176Z,17.51
2017-05-14T05:17:25.283Z,17.49
2017-05-14T05:17:51.422Z,17.51
2017-05-14T05:18:17.522Z,17.45
2017-05-14T05:18:43.628Z,17.63
2017-05-14T05:19:09.793Z,17.64
2017-05-14T05:19:35.920Z,17.68
2017-05-14T05:20:02.060Z,17.59
2017-05-14T05:20:28.189Z,17.7
2017-05-14T05:20:54.295Z,17.76
2017-05-14T05:21:20.379Z,17.72
2017-05-14T05:21:46.503Z,17.74
2017-05-14T05:22:12.608Z,17.76
2017-05-14T05:22:38.699Z,17.74
2017-05-14T05:23:04.822Z,17.78
2017-05-14T05:23:30.953Z,17.78
2017-05-14T05:23:57.046Z,17.8
2017-05-14T05:24:23.185Z,17.76
2017-05-14T05:24:49.287Z,17.57
2017-05-14T05:25:15.385Z,17.64
2017-05-14T05:25:41.492Z,17.74
2017-05-14T05:26:07.629Z,17.82
2017-05-14T05:26:33.726Z,17.78
2017-05-14T05:26:59.861Z,17.67
2017-05-14T05:27:25.996Z,17.79
2017-05-14T05:27:52.047Z,17.76
2017-05-14T05:28:18.184Z,17.83
2017-05-14T05:28:44.367Z,17.8
2017-05-14T05:29:10.477Z,17.8
2017-05-14T05:29:36.583Z,17.79
2017-05-14T05:30:02.711Z,17.79
2017-05-14T05:30:28.812Z,17.78
2017-05-14T05:30:54.932Z,17.85
2017-05-14T05:31:21.022Z,17.86
2017-05-14T05:31:47.133Z,17.89
2017-05-14T05:32:13.230Z,17.74
2017-05-14T05:32:39.321Z,17.8
2017-05-14T05:33:05.427Z,17.74
2017-05-14T05:33:31.551Z,17.8
2017-05-14T05:33:57.643Z,17.86
2017-05-14T05:34:23.745Z,17.8
2017-05-14T05:34:49.851Z,17.83
2017-05-14T05:35:15.963Z,17.85
2017-05-14T05:35:42.063Z,17.76
2017-05-14T05:36:08.184Z,17.85
2017-05-14T05:36:34.313Z,17.85
2017-05-14T05:37:00.442Z,17.9
2017-05-14T05:37:26.535Z,17.97